Geddes, SD (57342)

6:37 AM CDT on August 22, 2019 (GMT -0500)
Geddes | | Change Station
Active Advisory: Flood Warning

Elev 1647 ft 43.31 °N, 98.79 °W | Updated 14 seconds ago

Mostly Cloudy
Mostly Cloudy
64 °F
Feels Like 64 °F
N
1.8
Wind Variable Wind from SE
Gusts 2.2 mph

Today
High -- | Low -- °F
--% Chance of Precip.
Yesterday
High -- | Low -- °F
Precip. -- in
Pressure 30.05 in
Visibility 4.0 miles
Clouds Mostly Cloudy 300 ft
Dew Point 63 °F
Humidity 95%
Rainfall 0.00 in
Snow Depth Not available.
6:47 AM 8:26 PM
Waning Gibbous, 61% visible
SPECI KMHE 221111Z AUTO 09006KT 4SM BR BKN003 17/15 A3005 RMK AO2 T01670150
Pressure 30.05 in
Visibility 4.0 miles
Clouds Mostly Cloudy 300 ft
Dew Point 63 °F
Humidity 95%
Rainfall 0.00 in
Snow Depth Not available.
6:47 AM 8:26 PM
Waning Gibbous, 61% visible
SPECI KMHE 221111Z AUTO 09006KT 4SM BR BKN003 17/15 A3005 RMK AO2 T01670150

Get Your Daily Forecast Email!

Thanks for signing up!

Be on the lookout for a verification email in your inbox.

You'll start receiving severe weather alerts in your inbox..

×

10-Day Weather Forecast

Almanac

Astronomy

Aug. 22, 2019 Rise Set
Actual Time
Civil Twilight
Nautical Twilight
Astronomical Twilight
Moon
Length of Visible Light
Length of Day
Tomorrow will be .
, % of the Moon is Illuminated

Today's Extremes

State Highs State Lows

Community

WunderPhotos

Category 6

Welcome to Category 6. This is the collective home for Weather Underground's featured writeups by Dr. Jeff Masters (right), Bob Henson (left), Chris Burt, and other regular contributors.

Nearby

Air Quality

  Air Quality AQ Index Pollutant
Not available.

Snow Depth

Station Depth Elevation

Earthquake Activity

City Distance Mag. Time & Date
Minimum magnitude displayed is 2.5.

Coastal Water Temperatures

Place Temperature

Stations

Nearby Weather Stations

Station Location Temp. Windchill Dew Point Humidity Wind Precip. Elev Updated Type
                   

Watches & Warnings

Flood Warning
Issued: 9:01 AM CDT Aug. 21, 2019 – National Weather Service

The Flood Warning continues for
the Missouri River near Verdel.
* Until further notice.
* At 08am Wednesday the stage was 24.60 feet.
* Flood stage is 24.00 feet.
* At stages near 25.0 feet... boat docks at lazy River Acres near
Verdel will be flooded and some permanent homes will be surrounded by
water.


Lat... Lon 4286 9831 4291 9830 4284 9810 4279 9811
          4282 9816 4285 9825




901 am CDT Wed Aug 21 2019

The Flood Warning continues for
the Missouri River near Greenwood.
* Until further notice.
* At 8am Wednesday the stage was 31.65 feet.
* Flood stage is 30.00 feet.


Lat... Lon 4304 9859 4309 9854 4296 9844 4291 9830
          4286 9831 4293 9849